KMCB/MCB METAR and TAF weather

Enter ICAO airport designator
Station Type Date Time Source
KMCB METAR 2020/11/25 22:53 UTC NOAA

KMCB 252253Z AUTO 19003KT 10SM FEW016 OVC090 22/20 A3000 RMK AO2 SLP155 T02170200


Station Type Date Time Source
KMCB Decoded METAR 2020/11/25 22:53 UTC NOAA

MCCOMB/PIKE COUNTY AIRPORT, MS, United States (KMCB) 31-11N 90-28W 124M
Nov 25, 2020 - 05:53 PM EST / 2020.11.25 2253 UTC
Wind: from the S (190 degrees) at 3 MPH (3 KT):0
Visibility: 10 mile(s):0
Sky conditions: overcast
Temperature: 71.1 F (21.7 C)
Dew Point: 68.0 F (20.0 C)
Relative Humidity: 90%
Pressure (altimeter): 30 in. Hg (1015 hPa)
ob: KMCB 252253Z AUTO 19003KT 10SM FEW016 OVC090 22/20 A3000 RMK AO2 SLP155 T02170200
cycle: 23

Station Type Date Time Source
KMCB TAF 2020/11/25 18:46 UTC NOAA

TAF KMCB 251741Z 2518/2618 21010G20KT P6SM VCSH BKN040
FM251900 21009KT P6SM BKN090
FM260400 VRB04KT P6SM BKN025
FM261100 VRB03KT P6SM OVC015
FM261500 VRB03KT P6SM BKN040

Example: see airport list